sensor_id;sensor_type;location;lat;lon;timestamp;P1;durP1;ratioP1;P2;durP2;ratioP2
67889;SDS011;54685;52.082;5.426;2023-05-14T00:00:53;18.50;;;11.55;;
67889;SDS011;54685;52.082;5.426;2023-05-14T00:03:20;17.73;;;12.38;;
67889;SDS011;54685;52.082;5.426;2023-05-14T00:05:50;20.05;;;11.57;;
67889;SDS011;54685;52.082;5.426;2023-05-14T00:08:17;18.10;;;11.80;;
67889;SDS011;54685;52.082;5.426;2023-05-14T00:10:49;18.88;;;12.45;;
67889;SDS011;54685;52.082;5.426;2023-05-14T00:13:16;15.48;;;11.38;;
67889;SDS011;54685;52.082;5.426;2023-05-14T00:15:43;15.90;;;11.80;;
67889;SDS011;54685;52.082;5.426;2023-05-14T00:18:10;14.15;;;12.02;;
67889;SDS011;54685;52.082;5.426;2023-05-14T00:20:37;18.80;;;12.75;;
67889;SDS011;54685;52.082;5.426;2023-05-14T00:23:04;20.88;;;13.02;;
67889;SDS011;54685;52.082;5.426;2023-05-14T00:25:31;20.35;;;12.80;;
67889;SDS011;54685;52.082;5.426;2023-05-14T00:27:58;15.13;;;12.32;;
67889;SDS011;54685;52.082;5.426;2023-05-14T00:30:25;22.98;;;12.10;;
67889;SDS011;54685;52.082;5.426;2023-05-14T00:32:52;21.70;;;12.25;;
67889;SDS011;54685;52.082;5.426;2023-05-14T00:35:19;15.50;;;12.50;;
67889;SDS011;54685;52.082;5.426;2023-05-14T00:37:46;19.67;;;11.65;;
67889;SDS011;54685;52.082;5.426;2023-05-14T00:40:14;15.95;;;12.98;;
67889;SDS011;54685;52.082;5.426;2023-05-14T00:42:41;22.85;;;12.50;;
67889;SDS011;54685;52.082;5.426;2023-05-14T00:45:07;16.85;;;11.73;;
67889;SDS011;54685;52.082;5.426;2023-05-14T00:47:35;20.17;;;11.73;;
67889;SDS011;54685;52.082;5.426;2023-05-14T00:50:04;16.70;;;11.82;;
67889;SDS011;54685;52.082;5.426;2023-05-14T00:52:32;14.65;;;11.50;;
67889;SDS011;54685;52.082;5.426;2023-05-14T00:54:59;21.20;;;12.35;;
67889;SDS011;54685;52.082;5.426;2023-05-14T00:57:29;17.55;;;12.05;;
67889;SDS011;54685;52.082;5.426;2023-05-14T00:59:56;15.82;;;12.68;;
67889;SDS011;54685;52.082;5.426;2023-05-14T01:02:24;16.70;;;11.95;;
67889;SDS011;54685;52.082;5.426;2023-05-14T01:04:52;19.67;;;12.70;;
67889;SDS011;54685;52.082;5.426;2023-05-14T01:07:22;19.00;;;12.48;;
67889;SDS011;54685;52.082;5.426;2023-05-14T01:10:00;21.58;;;12.20;;
67889;SDS011;54685;52.082;5.426;2023-05-14T01:15:21;14.77;;;11.93;;
67889;SDS011;54685;52.082;5.426;2023-05-14T01:17:58;19.50;;;12.47;;
67889;SDS011;54685;52.082;5.426;2023-05-14T01:20:28;19.02;;;12.68;;
67889;SDS011;54685;52.082;5.426;2023-05-14T01:22:55;18.10;;;11.98;;
67889;SDS011;54685;52.082;5.426;2023-05-14T01:25:22;15.63;;;11.88;;
67889;SDS011;54685;52.082;5.426;2023-05-14T01:30:39;19.95;;;12.50;;
67889;SDS011;54685;52.082;5.426;2023-05-14T01:33:12;17.50;;;12.60;;
67889;SDS011;54685;52.082;5.426;2023-05-14T01:35:40;15.55;;;11.80;;
67889;SDS011;54685;52.082;5.426;2023-05-14T01:38:08;19.35;;;12.38;;
67889;SDS011;54685;52.082;5.426;2023-05-14T01:40:36;16.63;;;11.60;;
67889;SDS011;54685;52.082;5.426;2023-05-14T01:43:04;16.23;;;12.20;;
67889;SDS011;54685;52.082;5.426;2023-05-14T01:45:33;20.85;;;11.98;;
67889;SDS011;54685;52.082;5.426;2023-05-14T01:48:02;15.70;;;11.10;;
67889;SDS011;54685;52.082;5.426;2023-05-14T01:50:30;19.42;;;12.38;;
67889;SDS011;54685;52.082;5.426;2023-05-14T01:52:57;15.70;;;12.70;;
67889;SDS011;54685;52.082;5.426;2023-05-14T01:55:25;16.65;;;12.20;;
67889;SDS011;54685;52.082;5.426;2023-05-14T01:57:52;15.73;;;11.98;;
67889;SDS011;54685;52.082;5.426;2023-05-14T02:00:22;23.88;;;12.80;;
67889;SDS011;54685;52.082;5.426;2023-05-14T02:02:51;19.07;;;12.87;;
67889;SDS011;54685;52.082;5.426;2023-05-14T02:05:18;21.33;;;13.27;;
67889;SDS011;54685;52.082;5.426;2023-05-14T02:07:45;20.15;;;12.57;;
67889;SDS011;54685;52.082;5.426;2023-05-14T02:10:12;16.80;;;12.40;;
67889;SDS011;54685;52.082;5.426;2023-05-14T02:12:39;15.63;;;12.13;;
67889;SDS011;54685;52.082;5.426;2023-05-14T02:15:06;20.45;;;12.15;;
67889;SDS011;54685;52.082;5.426;2023-05-14T02:17:36;25.58;;;12.93;;
67889;SDS011;54685;52.082;5.426;2023-05-14T02:20:03;19.98;;;13.90;;
67889;SDS011;54685;52.082;5.426;2023-05-14T02:22:31;17.95;;;13.60;;
67889;SDS011;54685;52.082;5.426;2023-05-14T02:24:58;17.52;;;12.90;;
67889;SDS011;54685;52.082;5.426;2023-05-14T02:27:25;21.75;;;13.43;;
67889;SDS011;54685;52.082;5.426;2023-05-14T02:29:52;22.83;;;14.15;;
67889;SDS011;54685;52.082;5.426;2023-05-14T02:32:18;18.55;;;13.40;;
67889;SDS011;54685;52.082;5.426;2023-05-14T02:34:47;19.23;;;13.65;;
67889;SDS011;54685;52.082;5.426;2023-05-14T02:37:14;21.90;;;14.52;;
67889;SDS011;54685;52.082;5.426;2023-05-14T02:39:41;16.80;;;13.57;;
67889;SDS011;54685;52.082;5.426;2023-05-14T02:42:08;21.00;;;13.52;;
67889;SDS011;54685;52.082;5.426;2023-05-14T02:44:35;15.65;;;12.85;;
67889;SDS011;54685;52.082;5.426;2023-05-14T02:47:02;19.45;;;13.18;;
67889;SDS011;54685;52.082;5.426;2023-05-14T02:49:29;17.58;;;13.07;;
67889;SDS011;54685;52.082;5.426;2023-05-14T02:51:56;18.55;;;13.10;;
67889;SDS011;54685;52.082;5.426;2023-05-14T02:54:23;24.20;;;14.20;;
67889;SDS011;54685;52.082;5.426;2023-05-14T02:56:52;19.48;;;13.20;;
67889;SDS011;54685;52.082;5.426;2023-05-14T02:59:19;21.45;;;13.88;;
67889;SDS011;54685;52.082;5.426;2023-05-14T03:01:47;20.77;;;13.25;;
67889;SDS011;54685;52.082;5.426;2023-05-14T03:04:14;19.50;;;12.68;;
67889;SDS011;54685;52.082;5.426;2023-05-14T03:06:41;21.17;;;13.27;;
67889;SDS011;54685;52.082;5.426;2023-05-14T03:09:08;15.20;;;11.65;;
67889;SDS011;54685;52.082;5.426;2023-05-14T03:11:35;18.65;;;13.65;;
67889;SDS011;54685;52.082;5.426;2023-05-14T03:14:02;15.38;;;12.63;;
67889;SDS011;54685;52.082;5.426;2023-05-14T03:16:28;18.38;;;13.15;;
67889;SDS011;54685;52.082;5.426;2023-05-14T03:18:55;16.77;;;11.98;;
67889;SDS011;54685;52.082;5.426;2023-05-14T03:21:22;19.23;;;12.60;;
67889;SDS011;54685;52.082;5.426;2023-05-14T03:23:50;20.52;;;13.57;;
67889;SDS011;54685;52.082;5.426;2023-05-14T03:26:18;18.20;;;13.80;;
67889;SDS011;54685;52.082;5.426;2023-05-14T03:28:44;15.18;;;13.52;;
67889;SDS011;54685;52.082;5.426;2023-05-14T03:31:11;18.95;;;14.10;;
67889;SDS011;54685;52.082;5.426;2023-05-14T03:33:38;16.52;;;14.00;;
67889;SDS011;54685;52.082;5.426;2023-05-14T03:36:06;20.27;;;13.02;;
67889;SDS011;54685;52.082;5.426;2023-05-14T03:38:33;17.67;;;12.80;;
67889;SDS011;54685;52.082;5.426;2023-05-14T03:40:59;14.85;;;12.25;;
67889;SDS011;54685;52.082;5.426;2023-05-14T03:43:26;21.38;;;13.32;;
67889;SDS011;54685;52.082;5.426;2023-05-14T03:45:53;20.05;;;13.70;;
67889;SDS011;54685;52.082;5.426;2023-05-14T03:48:21;19.23;;;13.85;;
67889;SDS011;54685;52.082;5.426;2023-05-14T03:50:48;19.20;;;13.98;;
67889;SDS011;54685;52.082;5.426;2023-05-14T03:53:15;17.23;;;12.70;;
67889;SDS011;54685;52.082;5.426;2023-05-14T03:55:44;17.98;;;13.75;;
67889;SDS011;54685;52.082;5.426;2023-05-14T03:58:11;17.75;;;13.55;;
67889;SDS011;54685;52.082;5.426;2023-05-14T04:00:41;18.45;;;13.82;;
67889;SDS011;54685;52.082;5.426;2023-05-14T04:03:09;19.25;;;13.00;;
67889;SDS011;54685;52.082;5.426;2023-05-14T04:05:37;18.83;;;14.02;;
67889;SDS011;54685;52.082;5.426;2023-05-14T04:08:04;23.13;;;14.85;;
67889;SDS011;54685;52.082;5.426;2023-05-14T04:10:31;18.60;;;13.77;;
67889;SDS011;54685;52.082;5.426;2023-05-14T04:13:00;17.15;;;13.48;;
67889;SDS011;54685;52.082;5.426;2023-05-14T04:15:31;18.33;;;13.55;;
67889;SDS011;54685;52.082;5.426;2023-05-14T04:17:58;22.40;;;14.38;;
67889;SDS011;54685;52.082;5.426;2023-05-14T04:20:26;19.05;;;13.30;;
67889;SDS011;54685;52.082;5.426;2023-05-14T04:22:52;18.40;;;14.05;;
67889;SDS011;54685;52.082;5.426;2023-05-14T04:25:19;18.10;;;13.32;;
67889;SDS011;54685;52.082;5.426;2023-05-14T04:27:46;21.90;;;13.18;;
67889;SDS011;54685;52.082;5.426;2023-05-14T04:30:13;20.80;;;14.20;;
67889;SDS011;54685;52.082;5.426;2023-05-14T04:32:40;16.08;;;13.00;;
67889;SDS011;54685;52.082;5.426;2023-05-14T04:35:07;18.13;;;13.15;;
67889;SDS011;54685;52.082;5.426;2023-05-14T04:37:38;17.38;;;13.18;;
67889;SDS011;54685;52.082;5.426;2023-05-14T04:40:06;25.35;;;13.38;;
67889;SDS011;54685;52.082;5.426;2023-05-14T04:42:34;19.23;;;13.27;;
67889;SDS011;54685;52.082;5.426;2023-05-14T04:45:00;16.42;;;12.60;;
67889;SDS011;54685;52.082;5.426;2023-05-14T04:47:30;14.38;;;12.75;;
67889;SDS011;54685;52.082;5.426;2023-05-14T04:49:57;19.33;;;13.13;;
67889;SDS011;54685;52.082;5.426;2023-05-14T04:52:24;16.38;;;13.27;;
67889;SDS011;54685;52.082;5.426;2023-05-14T04:54:51;16.13;;;13.05;;
67889;SDS011;54685;52.082;5.426;2023-05-14T04:57:18;17.15;;;12.05;;
67889;SDS011;54685;52.082;5.426;2023-05-14T04:59:46;19.05;;;12.73;;
67889;SDS011;54685;52.082;5.426;2023-05-14T05:02:13;16.38;;;12.25;;
67889;SDS011;54685;52.082;5.426;2023-05-14T05:04:40;17.30;;;11.80;;
67889;SDS011;54685;52.082;5.426;2023-05-14T05:07:06;18.02;;;11.73;;
67889;SDS011;54685;52.082;5.426;2023-05-14T05:09:33;16.42;;;11.55;;
67889;SDS011;54685;52.082;5.426;2023-05-14T05:12:00;15.02;;;10.70;;
67889;SDS011;54685;52.082;5.426;2023-05-14T05:14:27;15.60;;;11.55;;
67889;SDS011;54685;52.082;5.426;2023-05-14T05:16:54;18.35;;;12.00;;
67889;SDS011;54685;52.082;5.426;2023-05-14T05:19:21;13.05;;;10.70;;
67889;SDS011;54685;52.082;5.426;2023-05-14T05:22:05;18.50;;;11.25;;
67889;SDS011;54685;52.082;5.426;2023-05-14T05:24:32;17.15;;;11.63;;
67889;SDS011;54685;52.082;5.426;2023-05-14T05:26:59;13.52;;;10.60;;
67889;SDS011;54685;52.082;5.426;2023-05-14T05:29:28;19.98;;;11.40;;
67889;SDS011;54685;52.082;5.426;2023-05-14T05:31:55;22.48;;;11.23;;
67889;SDS011;54685;52.082;5.426;2023-05-14T05:34:22;13.23;;;10.85;;
67889;SDS011;54685;52.082;5.426;2023-05-14T05:36:49;13.43;;;11.07;;
67889;SDS011;54685;52.082;5.426;2023-05-14T05:39:16;18.20;;;10.98;;
67889;SDS011;54685;52.082;5.426;2023-05-14T05:41:43;16.33;;;12.02;;
67889;SDS011;54685;52.082;5.426;2023-05-14T05:44:10;18.20;;;11.43;;
67889;SDS011;54685;52.082;5.426;2023-05-14T05:46:37;18.63;;;11.07;;
67889;SDS011;54685;52.082;5.426;2023-05-14T05:49:04;16.35;;;12.05;;
67889;SDS011;54685;52.082;5.426;2023-05-14T05:51:31;17.23;;;10.75;;
67889;SDS011;54685;52.082;5.426;2023-05-14T05:53:58;12.15;;;10.85;;
67889;SDS011;54685;52.082;5.426;2023-05-14T05:56:25;15.77;;;10.65;;
67889;SDS011;54685;52.082;5.426;2023-05-14T05:58:52;18.70;;;11.85;;
67889;SDS011;54685;52.082;5.426;2023-05-14T06:01:19;18.98;;;10.50;;
67889;SDS011;54685;52.082;5.426;2023-05-14T06:03:45;16.65;;;10.98;;
67889;SDS011;54685;52.082;5.426;2023-05-14T06:06:14;20.13;;;10.90;;
67889;SDS011;54685;52.082;5.426;2023-05-14T06:08:41;15.27;;;11.05;;
67889;SDS011;54685;52.082;5.426;2023-05-14T06:11:08;15.00;;;10.07;;
67889;SDS011;54685;52.082;5.426;2023-05-14T06:13:35;12.77;;;9.82;;
67889;SDS011;54685;52.082;5.426;2023-05-14T06:16:02;15.48;;;11.10;;
67889;SDS011;54685;52.082;5.426;2023-05-14T06:18:29;15.63;;;10.57;;
67889;SDS011;54685;52.082;5.426;2023-05-14T06:20:56;18.60;;;10.75;;
67889;SDS011;54685;52.082;5.426;2023-05-14T06:23:25;16.80;;;10.55;;
67889;SDS011;54685;52.082;5.426;2023-05-14T06:25:52;13.73;;;10.18;;
67889;SDS011;54685;52.082;5.426;2023-05-14T06:28:19;14.35;;;10.48;;
67889;SDS011;54685;52.082;5.426;2023-05-14T06:30:48;15.23;;;10.48;;
67889;SDS011;54685;52.082;5.426;2023-05-14T06:33:15;14.38;;;9.25;;
67889;SDS011;54685;52.082;5.426;2023-05-14T06:35:45;15.70;;;10.07;;
67889;SDS011;54685;52.082;5.426;2023-05-14T06:38:12;15.38;;;10.18;;
67889;SDS011;54685;52.082;5.426;2023-05-14T06:40:39;15.18;;;10.30;;
67889;SDS011;54685;52.082;5.426;2023-05-14T06:43:06;16.30;;;10.55;;
67889;SDS011;54685;52.082;5.426;2023-05-14T06:45:33;15.98;;;10.40;;
67889;SDS011;54685;52.082;5.426;2023-05-14T06:48:00;13.77;;;10.82;;
67889;SDS011;54685;52.082;5.426;2023-05-14T06:50:27;13.75;;;10.10;;
67889;SDS011;54685;52.082;5.426;2023-05-14T06:52:54;13.63;;;9.88;;
67889;SDS011;54685;52.082;5.426;2023-05-14T06:55:21;18.20;;;10.10;;
67889;SDS011;54685;52.082;5.426;2023-05-14T06:57:48;15.00;;;10.02;;
67889;SDS011;54685;52.082;5.426;2023-05-14T07:00:15;12.52;;;9.30;;
67889;SDS011;54685;52.082;5.426;2023-05-14T07:02:43;13.00;;;8.80;;
67889;SDS011;54685;52.082;5.426;2023-05-14T07:05:10;13.55;;;8.95;;
67889;SDS011;54685;52.082;5.426;2023-05-14T07:07:37;12.35;;;8.60;;
67889;SDS011;54685;52.082;5.426;2023-05-14T07:10:06;17.08;;;9.35;;
67889;SDS011;54685;52.082;5.426;2023-05-14T07:12:33;12.60;;;8.75;;
67889;SDS011;54685;52.082;5.426;2023-05-14T07:15:01;16.02;;;9.55;;
67889;SDS011;54685;52.082;5.426;2023-05-14T07:17:28;13.43;;;9.85;;
67889;SDS011;54685;52.082;5.426;2023-05-14T07:19:55;13.02;;;8.63;;
67889;SDS011;54685;52.082;5.426;2023-05-14T07:22:22;19.80;;;9.98;;
67889;SDS011;54685;52.082;5.426;2023-05-14T07:24:49;12.63;;;8.70;;
67889;SDS011;54685;52.082;5.426;2023-05-14T07:27:15;13.32;;;9.35;;
67889;SDS011;54685;52.082;5.426;2023-05-14T07:29:43;11.73;;;8.60;;
67889;SDS011;54685;52.082;5.426;2023-05-14T07:32:10;11.70;;;8.32;;
67889;SDS011;54685;52.082;5.426;2023-05-14T07:34:40;12.93;;;8.68;;
67889;SDS011;54685;52.082;5.426;2023-05-14T07:37:08;13.63;;;7.60;;
67889;SDS011;54685;52.082;5.426;2023-05-14T07:39:35;17.33;;;7.93;;
67889;SDS011;54685;52.082;5.426;2023-05-14T07:42:03;18.27;;;8.57;;
67889;SDS011;54685;52.082;5.426;2023-05-14T07:44:30;9.18;;;7.82;;
67889;SDS011;54685;52.082;5.426;2023-05-14T07:46:57;15.63;;;8.10;;
67889;SDS011;54685;52.082;5.426;2023-05-14T07:49:24;11.98;;;7.55;;
67889;SDS011;54685;52.082;5.426;2023-05-14T07:51:51;14.32;;;8.63;;
67889;SDS011;54685;52.082;5.426;2023-05-14T07:54:17;14.52;;;8.15;;
67889;SDS011;54685;52.082;5.426;2023-05-14T07:56:44;11.07;;;8.00;;
67889;SDS011;54685;52.082;5.426;2023-05-14T07:59:11;16.05;;;8.75;;
67889;SDS011;54685;52.082;5.426;2023-05-14T08:01:38;14.68;;;9.40;;
67889;SDS011;54685;52.082;5.426;2023-05-14T08:04:04;10.35;;;7.85;;
67889;SDS011;54685;52.082;5.426;2023-05-14T08:06:32;20.10;;;9.30;;
67889;SDS011;54685;52.082;5.426;2023-05-14T08:08:59;13.63;;;9.60;;
67889;SDS011;54685;52.082;5.426;2023-05-14T08:11:26;12.60;;;9.07;;
67889;SDS011;54685;52.082;5.426;2023-05-14T08:13:53;15.55;;;9.25;;
67889;SDS011;54685;52.082;5.426;2023-05-14T08:16:19;20.40;;;9.10;;
67889;SDS011;54685;52.082;5.426;2023-05-14T08:18:46;13.57;;;8.23;;
67889;SDS011;54685;52.082;5.426;2023-05-14T08:21:13;14.73;;;8.80;;
67889;SDS011;54685;52.082;5.426;2023-05-14T08:23:41;17.58;;;8.55;;
67889;SDS011;54685;52.082;5.426;2023-05-14T08:26:09;17.25;;;9.40;;
67889;SDS011;54685;52.082;5.426;2023-05-14T08:28:38;14.70;;;8.48;;
67889;SDS011;54685;52.082;5.426;2023-05-14T08:31:05;14.95;;;8.30;;
67889;SDS011;54685;52.082;5.426;2023-05-14T08:33:32;12.77;;;7.97;;
67889;SDS011;54685;52.082;5.426;2023-05-14T08:35:59;12.80;;;8.45;;
67889;SDS011;54685;52.082;5.426;2023-05-14T08:38:26;12.82;;;7.85;;
67889;SDS011;54685;52.082;5.426;2023-05-14T08:40:57;15.30;;;8.43;;
67889;SDS011;54685;52.082;5.426;2023-05-14T08:43:25;11.75;;;7.70;;
67889;SDS011;54685;52.082;5.426;2023-05-14T08:45:56;18.42;;;9.32;;
67889;SDS011;54685;52.082;5.426;2023-05-14T08:48:30;14.50;;;8.45;;
67889;SDS011;54685;52.082;5.426;2023-05-14T08:51:07;11.93;;;7.75;;
67889;SDS011;54685;52.082;5.426;2023-05-14T08:53:34;17.30;;;7.82;;
67889;SDS011;54685;52.082;5.426;2023-05-14T08:56:03;13.35;;;7.93;;
67889;SDS011;54685;52.082;5.426;2023-05-14T08:58:32;11.63;;;7.70;;
67889;SDS011;54685;52.082;5.426;2023-05-14T09:00:58;14.40;;;7.47;;
67889;SDS011;54685;52.082;5.426;2023-05-14T09:03:25;13.95;;;7.70;;
67889;SDS011;54685;52.082;5.426;2023-05-14T09:05:53;13.00;;;8.13;;
67889;SDS011;54685;52.082;5.426;2023-05-14T09:08:23;17.27;;;8.05;;
67889;SDS011;54685;52.082;5.426;2023-05-14T09:10:50;10.77;;;7.13;;
67889;SDS011;54685;52.082;5.426;2023-05-14T09:13:17;10.15;;;6.50;;
67889;SDS011;54685;52.082;5.426;2023-05-14T09:15:44;13.80;;;6.55;;
67889;SDS011;54685;52.082;5.426;2023-05-14T09:18:13;15.60;;;6.95;;
67889;SDS011;54685;52.082;5.426;2023-05-14T09:20:40;10.98;;;5.68;;
67889;SDS011;54685;52.082;5.426;2023-05-14T09:23:07;10.55;;;5.57;;
67889;SDS011;54685;52.082;5.426;2023-05-14T09:25:34;8.63;;;5.05;;
67889;SDS011;54685;52.082;5.426;2023-05-14T09:28:04;8.07;;;4.97;;
67889;SDS011;54685;52.082;5.426;2023-05-14T09:30:32;10.77;;;5.07;;
67889;SDS011;54685;52.082;5.426;2023-05-14T09:33:00;10.02;;;4.88;;
67889;SDS011;54685;52.082;5.426;2023-05-14T09:35:29;9.40;;;4.90;;
67889;SDS011;54685;52.082;5.426;2023-05-14T09:37:57;10.43;;;5.70;;
67889;SDS011;54685;52.082;5.426;2023-05-14T09:40:24;10.95;;;5.30;;
67889;SDS011;54685;52.082;5.426;2023-05-14T09:42:52;7.60;;;4.65;;
67889;SDS011;54685;52.082;5.426;2023-05-14T09:45:19;10.27;;;4.50;;
67889;SDS011;54685;52.082;5.426;2023-05-14T09:47:46;10.35;;;4.32;;
67889;SDS011;54685;52.082;5.426;2023-05-14T09:50:13;8.88;;;4.25;;
67889;SDS011;54685;52.082;5.426;2023-05-14T09:52:40;8.48;;;4.30;;
67889;SDS011;54685;52.082;5.426;2023-05-14T09:55:08;14.75;;;4.60;;
67889;SDS011;54685;52.082;5.426;2023-05-14T09:57:35;10.93;;;4.32;;
67889;SDS011;54685;52.082;5.426;2023-05-14T10:00:02;11.75;;;4.60;;
67889;SDS011;54685;52.082;5.426;2023-05-14T10:02:32;13.68;;;4.78;;
67889;SDS011;54685;52.082;5.426;2023-05-14T10:05:03;10.35;;;4.20;;
67889;SDS011;54685;52.082;5.426;2023-05-14T10:07:36;12.15;;;4.63;;
67889;SDS011;54685;52.082;5.426;2023-05-14T10:10:14;12.02;;;4.65;;
67889;SDS011;54685;52.082;5.426;2023-05-14T10:12:45;12.02;;;4.85;;
67889;SDS011;54685;52.082;5.426;2023-05-14T10:18:22;19.98;;;4.72;;
67889;SDS011;54685;52.082;5.426;2023-05-14T10:20:55;7.97;;;4.68;;
67889;SDS011;54685;52.082;5.426;2023-05-14T10:23:29;13.80;;;5.00;;
67889;SDS011;54685;52.082;5.426;2023-05-14T10:25:57;15.10;;;5.22;;
67889;SDS011;54685;52.082;5.426;2023-05-14T10:28:25;17.40;;;5.45;;
67889;SDS011;54685;52.082;5.426;2023-05-14T10:30:52;15.90;;;6.03;;
67889;SDS011;54685;52.082;5.426;2023-05-14T10:33:20;19.70;;;5.40;;
67889;SDS011;54685;52.082;5.426;2023-05-14T10:36:03;11.40;;;4.82;;
67889;SDS011;54685;52.082;5.426;2023-05-14T10:38:34;15.10;;;5.20;;
67889;SDS011;54685;52.082;5.426;2023-05-14T10:41:09;14.85;;;5.35;;
67889;SDS011;54685;52.082;5.426;2023-05-14T10:43:38;14.63;;;4.78;;
67889;SDS011;54685;52.082;5.426;2023-05-14T10:46:07;13.15;;;4.97;;
67889;SDS011;54685;52.082;5.426;2023-05-14T10:48:36;12.82;;;4.57;;
67889;SDS011;54685;52.082;5.426;2023-05-14T10:51:06;7.57;;;4.32;;
67889;SDS011;54685;52.082;5.426;2023-05-14T10:53:35;10.82;;;4.60;;
67889;SDS011;54685;52.082;5.426;2023-05-14T10:56:07;13.13;;;4.90;;
67889;SDS011;54685;52.082;5.426;2023-05-14T10:58:35;11.05;;;4.28;;
67889;SDS011;54685;52.082;5.426;2023-05-14T11:01:07;12.55;;;4.63;;
67889;SDS011;54685;52.082;5.426;2023-05-14T11:03:44;8.85;;;3.92;;
67889;SDS011;54685;52.082;5.426;2023-05-14T11:06:13;11.15;;;4.30;;
67889;SDS011;54685;52.082;5.426;2023-05-14T11:08:41;9.50;;;4.22;;
67889;SDS011;54685;52.082;5.426;2023-05-14T11:11:09;10.88;;;4.13;;
67889;SDS011;54685;52.082;5.426;2023-05-14T11:13:37;15.07;;;4.40;;
67889;SDS011;54685;52.082;5.426;2023-05-14T11:16:04;8.65;;;4.35;;
67889;SDS011;54685;52.082;5.426;2023-05-14T11:18:34;12.48;;;4.63;;
67889;SDS011;54685;52.082;5.426;2023-05-14T11:21:06;11.35;;;4.53;;
67889;SDS011;54685;52.082;5.426;2023-05-14T11:23:33;11.95;;;3.90;;
67889;SDS011;54685;52.082;5.426;2023-05-14T11:25:59;12.63;;;4.40;;
67889;SDS011;54685;52.082;5.426;2023-05-14T11:28:26;9.20;;;3.85;;
67889;SDS011;54685;52.082;5.426;2023-05-14T11:30:53;8.82;;;4.45;;
67889;SDS011;54685;52.082;5.426;2023-05-14T11:33:21;9.70;;;3.50;;
67889;SDS011;54685;52.082;5.426;2023-05-14T11:35:48;12.27;;;4.45;;
67889;SDS011;54685;52.082;5.426;2023-05-14T11:38:15;11.73;;;4.47;;
67889;SDS011;54685;52.082;5.426;2023-05-14T11:40:56;12.13;;;3.83;;
67889;SDS011;54685;52.082;5.426;2023-05-14T11:43:24;10.48;;;4.18;;
67889;SDS011;54685;52.082;5.426;2023-05-14T11:45:54;10.25;;;3.95;;
67889;SDS011;54685;52.082;5.426;2023-05-14T11:48:22;13.82;;;4.10;;
67889;SDS011;54685;52.082;5.426;2023-05-14T11:50:50;9.07;;;3.20;;
67889;SDS011;54685;52.082;5.426;2023-05-14T11:53:18;11.65;;;3.85;;
67889;SDS011;54685;52.082;5.426;2023-05-14T11:55:45;13.68;;;4.18;;
67889;SDS011;54685;52.082;5.426;2023-05-14T11:58:13;10.27;;;4.03;;
67889;SDS011;54685;52.082;5.426;2023-05-14T12:00:43;7.53;;;3.50;;
67889;SDS011;54685;52.082;5.426;2023-05-14T12:03:19;7.22;;;3.40;;
67889;SDS011;54685;52.082;5.426;2023-05-14T12:05:54;10.07;;;3.63;;
67889;SDS011;54685;52.082;5.426;2023-05-14T12:08:24;9.50;;;3.85;;
67889;SDS011;54685;52.082;5.426;2023-05-14T12:10:59;8.35;;;3.80;;
67889;SDS011;54685;52.082;5.426;2023-05-14T12:13:32;11.70;;;3.90;;
67889;SDS011;54685;52.082;5.426;2023-05-14T12:15:59;11.50;;;4.25;;
67889;SDS011;54685;52.082;5.426;2023-05-14T12:18:30;10.52;;;3.70;;
67889;SDS011;54685;52.082;5.426;2023-05-14T12:21:01;10.20;;;3.45;;
67889;SDS011;54685;52.082;5.426;2023-05-14T12:23:29;14.65;;;4.47;;
67889;SDS011;54685;52.082;5.426;2023-05-14T12:26:00;16.77;;;4.65;;
67889;SDS011;54685;52.082;5.426;2023-05-14T12:28:29;27.00;;;4.43;;
67889;SDS011;54685;52.082;5.426;2023-05-14T12:30:57;9.77;;;3.58;;
67889;SDS011;54685;52.082;5.426;2023-05-14T12:33:25;19.35;;;3.78;;
67889;SDS011;54685;52.082;5.426;2023-05-14T12:35:52;15.02;;;4.45;;
67889;SDS011;54685;52.082;5.426;2023-05-14T12:38:26;54.83;;;6.15;;
67889;SDS011;54685;52.082;5.426;2023-05-14T12:40:53;22.45;;;4.20;;
67889;SDS011;54685;52.082;5.426;2023-05-14T12:43:20;14.30;;;3.70;;
67889;SDS011;54685;52.082;5.426;2023-05-14T12:45:47;9.77;;;3.55;;
67889;SDS011;54685;52.082;5.426;2023-05-14T12:48:13;345.35;;;18.65;;
67889;SDS011;54685;52.082;5.426;2023-05-14T12:50:40;13.85;;;3.85;;
67889;SDS011;54685;52.082;5.426;2023-05-14T12:53:07;8.20;;;3.30;;
67889;SDS011;54685;52.082;5.426;2023-05-14T12:55:34;37.67;;;4.75;;
67889;SDS011;54685;52.082;5.426;2023-05-14T12:58:01;19.48;;;3.72;;
67889;SDS011;54685;52.082;5.426;2023-05-14T13:00:28;126.13;;;8.65;;
67889;SDS011;54685;52.082;5.426;2023-05-14T13:02:55;13.20;;;4.35;;
67889;SDS011;54685;52.082;5.426;2023-05-14T13:05:22;13.23;;;3.83;;
67889;SDS011;54685;52.082;5.426;2023-05-14T13:07:51;10.43;;;3.58;;
67889;SDS011;54685;52.082;5.426;2023-05-14T13:10:17;77.32;;;6.28;;
67889;SDS011;54685;52.082;5.426;2023-05-14T13:12:44;10.63;;;4.18;;
67889;SDS011;54685;52.082;5.426;2023-05-14T13:15:11;22.42;;;3.88;;
67889;SDS011;54685;52.082;5.426;2023-05-14T13:17:38;14.52;;;3.63;;
67889;SDS011;54685;52.082;5.426;2023-05-14T13:20:07;7.78;;;3.30;;
67889;SDS011;54685;52.082;5.426;2023-05-14T13:22:34;7.55;;;3.55;;
67889;SDS011;54685;52.082;5.426;2023-05-14T13:25:01;8.75;;;3.05;;
67889;SDS011;54685;52.082;5.426;2023-05-14T13:27:30;8.30;;;3.85;;
67889;SDS011;54685;52.082;5.426;2023-05-14T13:29:57;12.77;;;3.70;;
67889;SDS011;54685;52.082;5.426;2023-05-14T13:32:24;10.27;;;4.20;;
67889;SDS011;54685;52.082;5.426;2023-05-14T13:34:51;16.08;;;3.63;;
67889;SDS011;54685;52.082;5.426;2023-05-14T13:37:18;11.88;;;4.00;;
67889;SDS011;54685;52.082;5.426;2023-05-14T13:39:45;6.18;;;3.30;;
67889;SDS011;54685;52.082;5.426;2023-05-14T13:42:12;9.43;;;3.45;;
67889;SDS011;54685;52.082;5.426;2023-05-14T13:44:39;9.68;;;3.42;;
67889;SDS011;54685;52.082;5.426;2023-05-14T13:47:06;9.30;;;3.70;;
67889;SDS011;54685;52.082;5.426;2023-05-14T13:49:33;7.00;;;3.63;;
67889;SDS011;54685;52.082;5.426;2023-05-14T13:52:00;7.22;;;3.47;;
67889;SDS011;54685;52.082;5.426;2023-05-14T13:54:27;9.30;;;3.03;;
67889;SDS011;54685;52.082;5.426;2023-05-14T13:56:53;12.27;;;4.10;;
67889;SDS011;54685;52.082;5.426;2023-05-14T13:59:20;9.38;;;2.88;;
67889;SDS011;54685;52.082;5.426;2023-05-14T14:01:49;6.70;;;3.20;;
67889;SDS011;54685;52.082;5.426;2023-05-14T14:04:16;19.25;;;4.03;;
67889;SDS011;54685;52.082;5.426;2023-05-14T14:06:45;11.95;;;3.20;;
67889;SDS011;54685;52.082;5.426;2023-05-14T14:09:12;9.07;;;3.22;;
67889;SDS011;54685;52.082;5.426;2023-05-14T14:11:39;9.32;;;3.35;;
67889;SDS011;54685;52.082;5.426;2023-05-14T14:14:06;8.65;;;3.38;;
67889;SDS011;54685;52.082;5.426;2023-05-14T14:16:33;8.88;;;3.50;;
67889;SDS011;54685;52.082;5.426;2023-05-14T14:19:00;10.23;;;3.40;;
67889;SDS011;54685;52.082;5.426;2023-05-14T14:21:27;6.78;;;3.22;;
67889;SDS011;54685;52.082;5.426;2023-05-14T14:23:54;10.50;;;3.58;;
67889;SDS011;54685;52.082;5.426;2023-05-14T14:26:20;6.82;;;2.90;;
67889;SDS011;54685;52.082;5.426;2023-05-14T14:28:47;8.20;;;3.10;;
67889;SDS011;54685;52.082;5.426;2023-05-14T14:31:14;13.88;;;2.85;;
67889;SDS011;54685;52.082;5.426;2023-05-14T14:33:42;8.63;;;3.47;;
67889;SDS011;54685;52.082;5.426;2023-05-14T14:36:08;5.03;;;2.75;;
67889;SDS011;54685;52.082;5.426;2023-05-14T14:38:35;9.18;;;3.40;;
67889;SDS011;54685;52.082;5.426;2023-05-14T14:41:04;9.35;;;3.38;;
67889;SDS011;54685;52.082;5.426;2023-05-14T14:43:38;12.60;;;3.63;;